Time,TemperatureF,DewpointF,PressureIn,WindDirection,WindDirectionDegrees,WindSpeedMPH,WindSpeedGustMPH,Humidity,HourlyPrecipIn,Conditions,Clouds,dailyrainin,SoftwareType,DateUTC
2013-06-14 00:05:00,70.4,63.6,29.87,ESE,108,0.0,0.0,79,0.00,,,0.00,Wunderground v.1.15,2013-06-14 05:05:00,
2013-06-14 00:10:00,70.4,63.6,29.87,ESE,108,0.0,0.0,79,0.00,,,0.00,Wunderground v.1.15,2013-06-14 05:10:00,
2013-06-14 00:20:00,69.6,63.5,29.87,ESE,121,0.0,0.0,81,0.00,,,0.00,Wunderground v.1.15,2013-06-14 05:20:00,
2013-06-14 00:30:00,69.3,63.6,29.87,SE,127,0.0,0.0,82,0.00,,,0.00,Wunderground v.1.15,2013-06-14 05:30:00,
2013-06-14 00:40:00,69.1,63.7,29.86,East,86,1.0,1.0,83,0.00,,,0.00,Wunderground v.1.15,2013-06-14 05:40:00,
2013-06-14 00:49:00,69.3,63.6,29.89,East,82,0.0,0.0,82,0.00,,,0.00,Wunderground v.1.15,2013-06-14 05:49:00,
2013-06-14 00:54:00,68.9,63.2,29.89,East,82,0.0,0.0,82,0.00,,,0.00,Wunderground v.1.15,2013-06-14 05:54:00,
2013-06-14 01:00:00,68.6,63.2,29.89,East,82,0.0,0.0,83,0.00,,,0.00,Wunderground v.1.15,2013-06-14 06:00:00,
2013-06-14 01:05:00,68.3,63.3,29.89,East,82,0.0,0.0,84,0.00,,,0.00,Wunderground v.1.15,2013-06-14 06:05:00,
2013-06-14 01:15:00,68.1,63.1,29.89,East,82,0.0,0.0,84,0.00,,,0.00,Wunderground v.1.15,2013-06-14 06:15:00,
2013-06-14 01:25:00,67.6,62.6,29.90,East,82,0.0,0.0,84,0.00,,,0.00,Wunderground v.1.15,2013-06-14 06:25:00,
2013-06-14 01:35:00,66.9,62.2,29.90,East,82,0.0,0.0,85,0.00,,,0.00,Wunderground v.1.15,2013-06-14 06:35:00,
2013-06-14 01:45:00,66.4,62.1,29.90,East,82,0.0,0.0,86,0.00,,,0.00,Wunderground v.1.15,2013-06-14 06:45:00,
2013-06-14 01:55:00,66.3,62.3,29.90,East,82,0.0,0.0,87,0.00,,,0.00,Wunderground v.1.15,2013-06-14 06:55:00,
2013-06-14 02:05:00,66.0,62.3,29.90,East,82,0.0,0.0,88,0.00,,,0.00,Wunderground v.1.15,2013-06-14 07:05:00,
2013-06-14 02:14:00,65.5,61.9,29.90,East,82,0.0,0.0,88,0.00,,,0.00,Wunderground v.1.15,2013-06-14 07:14:00,
2013-06-14 02:19:00,65.2,61.6,29.90,East,82,0.0,0.0,88,0.00,,,0.00,Wunderground v.1.15,2013-06-14 07:19:00,
2013-06-14 02:25:00,65.0,61.4,29.90,East,82,0.0,0.0,88,0.00,,,0.00,Wunderground v.1.15,2013-06-14 07:25:00,
2013-06-14 02:35:00,64.7,61.4,29.90,East,82,0.0,0.0,89,0.00,,,0.00,Wunderground v.1.15,2013-06-14 07:35:00,
2013-06-14 02:44:00,64.5,61.2,29.90,East,82,0.0,0.0,89,0.00,,,0.00,Wunderground v.1.15,2013-06-14 07:44:00,
2013-06-14 02:50:00,64.3,61.0,29.90,East,82,0.0,0.0,89,0.00,,,0.00,Wunderground v.1.15,2013-06-14 07:50:00,
2013-06-14 03:00:00,64.0,61.0,29.90,East,82,0.0,0.0,90,0.00,,,0.00,Wunderground v.1.15,2013-06-14 08:00:00,
2013-06-14 03:10:00,63.9,60.9,29.90,East,82,0.0,0.0,90,0.00,,,0.00,Wunderground v.1.15,2013-06-14 08:10:00,
2013-06-14 03:20:00,63.5,60.5,29.89,East,82,0.0,0.0,90,0.00,,,0.00,Wunderground v.1.15,2013-06-14 08:20:00,
2013-06-14 03:30:00,63.2,60.2,29.89,East,82,0.0,0.0,90,0.00,,,0.00,Wunderground v.1.15,2013-06-14 08:30:00,
2013-06-14 03:39:00,63.1,60.4,29.90,East,82,0.0,0.0,91,0.00,,,0.00,Wunderground v.1.15,2013-06-14 08:39:00,
2013-06-14 03:45:00,63.1,60.4,29.90,East,82,0.0,0.0,91,0.00,,,0.00,Wunderground v.1.15,2013-06-14 08:45:00,
2013-06-14 03:50:00,62.9,60.2,29.89,East,82,0.0,0.0,91,0.00,,,0.00,Wunderground v.1.15,2013-06-14 08:50:00,
2013-06-14 04:00:00,62.7,60.3,29.89,East,82,0.0,0.0,92,0.00,,,0.00,Wunderground v.1.15,2013-06-14 09:00:00,
2013-06-14 04:05:00,63.4,61.0,29.90,East,82,0.0,0.0,92,0.00,,,0.00,Wunderground v.1.15,2013-06-14 09:05:00,
2013-06-14 04:15:00,63.4,60.7,29.90,East,82,0.0,0.0,91,0.00,,,0.00,Wunderground v.1.15,2013-06-14 09:15:00,
2013-06-14 04:25:00,62.7,60.0,29.90,East,82,0.0,0.0,91,0.00,,,0.00,Wunderground v.1.15,2013-06-14 09:25:00,
2013-06-14 04:35:00,62.4,60.0,29.90,East,82,0.0,0.0,92,0.00,,,0.00,Wunderground v.1.15,2013-06-14 09:35:00,
2013-06-14 04:45:00,62.6,60.2,29.90,East,82,0.0,0.0,92,0.00,,,0.00,Wunderground v.1.15,2013-06-14 09:45:00,
2013-06-14 04:55:00,62.0,59.6,29.90,East,82,0.0,0.0,92,0.00,,,0.00,Wunderground v.1.15,2013-06-14 09:55:00,
2013-06-14 05:05:00,61.5,59.2,29.91,East,82,0.0,0.0,92,0.00,,,0.00,Wunderground v.1.15,2013-06-14 10:05:00,
2013-06-14 05:14:00,61.2,58.9,29.91,East,82,0.0,0.0,92,0.00,,,0.00,Wunderground v.1.15,2013-06-14 10:14:00,
2013-06-14 05:19:00,61.0,58.7,29.91,East,82,0.0,0.0,92,0.00,,,0.00,Wunderground v.1.15,2013-06-14 10:19:00,
2013-06-14 05:25:00,60.9,58.6,29.91,East,82,0.0,0.0,92,0.00,,,0.00,Wunderground v.1.15,2013-06-14 10:25:00,
2013-06-14 05:35:00,61.0,58.7,29.91,East,82,0.0,0.0,92,0.00,,,0.00,Wunderground v.1.15,2013-06-14 10:35:00,
2013-06-14 05:44:00,61.2,58.9,29.91,East,82,0.0,0.0,92,0.00,,,0.00,Wunderground v.1.15,2013-06-14 10:44:00,
2013-06-14 05:50:00,62.0,60.0,29.91,East,82,0.0,0.0,93,0.00,,,0.00,Wunderground v.1.15,2013-06-14 10:50:00,
2013-06-14 06:00:00,62.0,59.6,29.91,East,82,0.0,0.0,92,0.00,,,0.00,Wunderground v.1.15,2013-06-14 11:00:00,
2013-06-14 06:05:00,62.6,60.5,29.91,East,82,0.0,0.0,93,0.00,,,0.00,Wunderground v.1.15,2013-06-14 11:05:00,
2013-06-14 06:10:00,62.3,59.9,29.91,East,82,0.0,0.0,92,0.00,,,0.00,Wunderground v.1.15,2013-06-14 11:10:00,
2013-06-14 06:20:00,61.5,59.2,29.92,East,82,0.0,0.0,92,0.00,,,0.00,Wunderground v.1.15,2013-06-14 11:20:00,
2013-06-14 06:30:00,62.1,59.7,29.92,East,82,0.0,0.0,92,0.00,,,0.00,Wunderground v.1.15,2013-06-14 11:30:00,
2013-06-14 06:40:00,62.0,59.6,29.92,East,82,0.0,0.0,92,0.00,,,0.00,Wunderground v.1.15,2013-06-14 11:40:00,
2013-06-14 06:50:00,62.4,60.3,29.93,East,82,0.0,0.0,93,0.00,,,0.00,Wunderground v.1.15,2013-06-14 11:50:00,
2013-06-14 07:00:00,62.7,60.6,29.93,East,82,0.0,0.0,93,0.00,,,0.00,Wunderground v.1.15,2013-06-14 12:00:00,
2013-06-14 07:05:00,63.4,61.3,29.92,East,82,0.0,0.0,93,0.00,,,0.00,Wunderground v.1.15,2013-06-14 12:05:00,
2013-06-14 07:10:00,63.9,61.8,29.92,East,82,0.0,0.0,93,0.00,,,0.00,Wunderground v.1.15,2013-06-14 12:10:00,
2013-06-14 07:20:00,64.8,62.4,29.93,East,82,0.0,0.0,92,0.00,,,0.00,Wunderground v.1.15,2013-06-14 12:20:00,
2013-06-14 07:29:00,65.6,62.9,29.93,East,82,0.0,0.0,91,0.00,,,0.00,Wunderground v.1.15,2013-06-14 12:29:00,
2013-06-14 07:35:00,66.1,63.1,29.93,East,82,0.0,0.0,90,0.00,,,0.00,Wunderground v.1.15,2013-06-14 12:35:00,
2013-06-14 07:45:00,66.9,62.9,29.93,East,82,0.0,0.0,87,0.00,,,0.00,Wunderground v.1.15,2013-06-14 12:45:00,
2013-06-14 07:55:00,67.9,63.2,29.93,East,82,0.0,0.0,85,0.00,,,0.00,Wunderground v.1.15,2013-06-14 12:55:00,
2013-06-14 08:05:00,68.6,63.6,29.93,East,83,0.0,0.0,84,0.00,,,0.00,Wunderground v.1.15,2013-06-14 13:05:00,
2013-06-14 08:15:00,69.9,64.2,29.93,East,99,0.0,0.0,82,0.00,,,0.00,Wunderground v.1.15,2013-06-14 13:15:00,
2013-06-14 08:25:00,70.9,63.7,29.93,SE,143,2.0,2.0,78,0.00,,,0.00,Wunderground v.1.15,2013-06-14 13:25:00,
2013-06-14 08:34:00,71.8,64.2,29.94,SSE,156,1.0,3.0,77,0.00,,,0.00,Wunderground v.1.15,2013-06-14 13:34:00,
2013-06-14 08:40:00,72.1,64.1,29.94,ESE,107,1.0,1.0,76,0.00,,,0.00,Wunderground v.1.15,2013-06-14 13:40:00,
2013-06-14 08:50:00,73.3,64.5,29.93,SSE,158,2.0,2.0,74,0.00,,,0.00,Wunderground v.1.15,2013-06-14 13:50:00,
2013-06-14 09:00:00,73.9,64.7,29.93,East,89,3.0,3.0,73,0.00,,,0.00,Wunderground v.1.15,2013-06-14 14:00:00,
2013-06-14 09:05:00,74.4,65.6,29.94,South,191,3.0,4.0,74,0.00,,,0.00,Wunderground v.1.15,2013-06-14 14:05:00,
2013-06-14 09:15:00,75.3,64.8,29.94,SE,128,2.0,2.0,70,0.00,,,0.00,Wunderground v.1.15,2013-06-14 14:15:00,
2013-06-14 09:25:00,76.0,64.2,29.94,SSE,159,3.0,5.0,67,0.00,,,0.00,Wunderground v.1.15,2013-06-14 14:25:00,
2013-06-14 09:35:00,76.5,64.3,29.94,SSE,151,3.0,3.0,66,0.00,,,0.00,Wunderground v.1.15,2013-06-14 14:35:00,
2013-06-14 09:45:00,76.8,64.6,29.94,SSE,165,4.0,7.0,66,0.00,,,0.00,Wunderground v.1.15,2013-06-14 14:45:00,
2013-06-14 09:54:00,77.0,63.4,29.93,SSE,157,5.0,11.0,63,0.00,,,0.00,Wunderground v.1.15,2013-06-14 14:54:00,
2013-06-14 10:00:00,77.2,64.5,29.93,SSE,158,5.0,5.0,65,0.00,,,0.00,Wunderground v.1.15,2013-06-14 15:00:00,
2013-06-14 10:05:00,77.6,64.0,29.93,SE,146,5.0,5.0,63,0.00,,,0.00,Wunderground v.1.15,2013-06-14 15:05:00,
2013-06-14 10:15:00,77.7,63.6,29.93,SE,145,6.0,6.0,62,0.00,,,0.00,Wunderground v.1.15,2013-06-14 15:15:00,
2013-06-14 10:24:00,78.3,63.7,29.93,South,171,5.0,6.0,61,0.00,,,0.00,Wunderground v.1.15,2013-06-14 15:24:00,
2013-06-14 10:30:00,78.3,63.7,29.93,SSW,195,7.0,12.0,61,0.00,,,0.00,Wunderground v.1.15,2013-06-14 15:30:00,
2013-06-14 10:40:00,78.6,64.0,29.93,East,79,5.0,5.0,61,0.00,,,0.00,Wunderground v.1.15,2013-06-14 15:40:00,
2013-06-14 10:50:00,79.4,63.8,29.92,ESE,109,3.0,3.0,59,0.00,,,0.00,Wunderground v.1.15,2013-06-14 15:50:00,
2013-06-14 11:00:00,80.3,65.6,29.92,SSE,165,3.0,4.0,61,0.00,,,0.00,Wunderground v.1.15,2013-06-14 16:00:00,
2013-06-14 11:05:00,80.5,64.9,29.91,SE,138,4.0,4.0,59,0.00,,,0.00,Wunderground v.1.15,2013-06-14 16:05:00,
2013-06-14 11:15:00,80.5,65.3,29.91,South,169,3.0,4.0,60,0.00,,,0.00,Wunderground v.1.15,2013-06-14 16:15:00,
2013-06-14 11:25:00,81.1,65.9,29.92,SSE,150,3.0,5.0,60,0.00,,,0.00,Wunderground v.1.15,2013-06-14 16:25:00,
2013-06-14 11:35:00,80.9,65.2,29.91,SE,126,5.0,10.0,59,0.00,,,0.00,Wunderground v.1.15,2013-06-14 16:35:00,
2013-06-14 11:45:00,81.1,66.4,29.91,SSE,156,4.0,9.0,61,0.00,,,0.00,Wunderground v.1.15,2013-06-14 16:45:00,
2013-06-14 11:54:00,81.4,66.7,29.91,SSE,163,4.0,4.0,61,0.00,,,0.00,Wunderground v.1.15,2013-06-14 16:54:00,
2013-06-14 11:59:00,81.4,66.7,29.91,SE,141,5.0,6.0,61,0.00,,,0.00,Wunderground v.1.15,2013-06-14 16:59:00,
2013-06-14 12:05:00,81.6,66.8,29.91,South,175,4.0,6.0,61,0.00,,,0.00,Wunderground v.1.15,2013-06-14 17:05:00,
2013-06-14 12:14:00,82.0,65.8,29.91,SSE,149,3.0,5.0,58,0.00,,,0.00,Wunderground v.1.15,2013-06-14 17:14:00,
2013-06-14 12:20:00,82.4,67.6,29.92,SSE,157,3.0,3.0,61,0.00,,,0.00,Wunderground v.1.15,2013-06-14 17:20:00,
2013-06-14 12:30:00,82.6,68.3,29.92,SSE,155,5.0,6.0,62,0.00,,,0.00,Wunderground v.1.15,2013-06-14 17:30:00,
2013-06-14 12:39:00,83.0,67.2,29.92,SSW,192,3.0,5.0,59,0.00,,,0.00,Wunderground v.1.15,2013-06-14 17:39:00,
2013-06-14 12:44:00,83.2,66.9,29.92,ESE,120,3.0,5.0,58,0.00,,,0.00,Wunderground v.1.15,2013-06-14 17:44:00,
2013-06-14 12:50:00,83.2,67.9,29.92,SE,132,2.0,2.0,60,0.00,,,0.00,Wunderground v.1.15,2013-06-14 17:50:00,
2013-06-14 12:59:00,83.8,67.4,29.92,South,181,3.0,4.0,58,0.00,,,0.00,Wunderground v.1.15,2013-06-14 17:59:00,
2013-06-14 13:05:00,84.0,67.6,29.91,SSE,154,3.0,4.0,58,0.00,,,0.00,Wunderground v.1.15,2013-06-14 18:05:00,
2013-06-14 13:15:00,84.1,67.2,29.91,East,80,2.0,5.0,57,0.00,,,0.00,Wunderground v.1.15,2013-06-14 18:15:00,
2013-06-14 13:24:00,84.3,68.9,29.91,SE,143,2.0,5.0,60,0.00,,,0.00,Wunderground v.1.15,2013-06-14 18:24:00,
2013-06-14 13:29:00,84.5,67.6,29.91,SSE,150,3.0,4.0,57,0.00,,,0.00,Wunderground v.1.15,2013-06-14 18:29:00,
2013-06-14 13:40:00,84.5,68.1,29.90,SE,142,2.0,3.0,58,0.00,,,0.00,Wunderground v.1.15,2013-06-14 18:40:00,
2013-06-14 13:49:00,84.5,68.1,29.89,SE,124,3.0,3.0,58,0.00,,,0.00,Wunderground v.1.15,2013-06-14 18:49:00,
2013-06-14 13:55:00,84.7,69.8,29.89,SSW,198,3.0,3.0,61,0.00,,,0.00,Wunderground v.1.15,2013-06-14 18:55:00,
2013-06-14 14:05:00,84.7,69.3,29.89,SE,144,4.0,4.0,60,0.00,,,0.00,Wunderground v.1.15,2013-06-14 19:05:00,
2013-06-14 14:10:00,85.1,68.7,29.89,ESE,105,2.0,2.0,58,0.00,,,0.00,Wunderground v.1.15,2013-06-14 19:10:00,
2013-06-14 14:20:00,85.3,68.3,29.89,SW,219,2.0,2.0,57,0.00,,,0.00,Wunderground v.1.15,2013-06-14 19:20:00,
2013-06-14 14:30:00,85.7,67.7,29.89,SSE,152,2.0,3.0,55,0.00,,,0.00,Wunderground v.1.15,2013-06-14 19:30:00,
2013-06-14 14:39:00,85.9,68.4,29.88,East,84,2.0,2.0,56,0.00,,,0.00,Wunderground v.1.15,2013-06-14 19:39:00,
2013-06-14 14:45:00,85.9,69.4,29.88,SSE,159,2.0,3.0,58,0.00,,,0.00,Wunderground v.1.15,2013-06-14 19:45:00,
2013-06-14 14:55:00,86.5,68.9,29.88,SE,132,1.0,1.0,56,0.00,,,0.00,Wunderground v.1.15,2013-06-14 19:55:00,
2013-06-14 15:05:00,87.0,69.4,29.87,SSE,149,1.0,3.0,56,0.00,,,0.00,Wunderground v.1.15,2013-06-14 20:05:00,
2013-06-14 15:14:00,87.0,68.9,29.87,South,171,2.0,3.0,55,0.00,,,0.00,Wunderground v.1.15,2013-06-14 20:14:00,
2013-06-14 15:20:00,87.0,69.4,29.87,South,176,2.0,2.0,56,0.00,,,0.00,Wunderground v.1.15,2013-06-14 20:20:00,
2013-06-14 15:30:00,87.2,69.6,29.87,SSE,167,1.0,1.0,56,0.00,,,0.00,Wunderground v.1.15,2013-06-14 20:30:00,
2013-06-14 15:40:00,87.2,69.6,29.86,South,186,1.0,4.0,56,0.00,,,0.00,Wunderground v.1.15,2013-06-14 20:40:00,
2013-06-14 15:50:00,87.4,69.3,29.85,East,99,1.0,1.0,55,0.00,,,0.00,Wunderground v.1.15,2013-06-14 20:50:00,
2013-06-14 16:00:00,87.6,70.0,29.85,SE,145,1.0,1.0,56,0.00,,,0.00,Wunderground v.1.15,2013-06-14 21:00:00,
2013-06-14 16:05:00,87.6,70.5,29.85,SE,143,1.0,1.0,57,0.00,,,0.00,Wunderground v.1.15,2013-06-14 21:05:00,
2013-06-14 16:10:00,87.8,70.1,29.85,ESE,110,1.0,1.0,56,0.00,,,0.00,Wunderground v.1.15,2013-06-14 21:10:00,
2013-06-14 16:15:00,87.8,69.6,29.85,East,90,1.0,4.0,55,0.00,,,0.00,Wunderground v.1.15,2013-06-14 21:15:00,
2013-06-14 16:24:00,87.8,69.6,29.85,ESE,106,1.0,3.0,55,0.00,,,0.00,Wunderground v.1.15,2013-06-14 21:24:00,
2013-06-14 16:30:00,87.8,69.6,29.85,SSE,161,1.0,1.0,55,0.00,,,0.00,Wunderground v.1.15,2013-06-14 21:30:00,
2013-06-14 16:40:00,87.6,70.5,29.85,ENE,78,0.0,0.0,57,0.00,,,0.00,Wunderground v.1.15,2013-06-14 21:40:00,
2013-06-14 16:50:00,87.6,71.0,29.84,ESE,110,1.0,4.0,58,0.00,,,0.00,Wunderground v.1.15,2013-06-14 21:50:00,
2013-06-14 16:59:00,88.0,70.3,29.84,SSE,157,1.0,1.0,56,0.00,,,0.00,Wunderground v.1.15,2013-06-14 21:59:00,
2013-06-14 17:05:00,87.8,69.6,29.84,ESE,103,1.0,1.0,55,0.00,,,0.00,Wunderground v.1.15,2013-06-14 22:05:00,
2013-06-14 17:15:00,87.6,68.4,29.84,East,80,2.0,3.0,53,0.00,,,0.00,Wunderground v.1.15,2013-06-14 22:15:00,
2013-06-14 17:25:00,87.2,68.5,29.84,East,96,1.0,3.0,54,0.00,,,0.00,Wunderground v.1.15,2013-06-14 22:25:00,
2013-06-14 17:34:00,87.2,68.5,29.84,ESE,112,1.0,1.0,54,0.00,,,0.00,Wunderground v.1.15,2013-06-14 22:34:00,
2013-06-14 17:40:00,87.2,69.1,29.84,ESE,116,1.0,1.0,55,0.00,,,0.00,Wunderground v.1.15,2013-06-14 22:40:00,
2013-06-14 17:50:00,86.7,68.6,29.84,ESE,119,2.0,2.0,55,0.00,,,0.00,Wunderground v.1.15,2013-06-14 22:50:00,
2013-06-14 18:00:00,86.7,68.6,29.84,SSE,157,1.0,3.0,55,0.00,,,0.00,Wunderground v.1.15,2013-06-14 23:00:00,
2013-06-14 18:10:00,86.3,68.2,29.83,ENE,78,1.0,1.0,55,0.00,,,0.00,Wunderground v.1.15,2013-06-14 23:10:00,
2013-06-14 18:19:00,86.1,67.5,29.83,SSE,164,1.0,1.0,54,0.00,,,0.00,Wunderground v.1.15,2013-06-14 23:19:00,
2013-06-14 18:25:00,86.1,68.6,29.83,SE,126,1.0,3.0,56,0.00,,,0.00,Wunderground v.1.15,2013-06-14 23:25:00,
2013-06-14 18:35:00,85.5,68.5,29.83,ESE,114,2.0,3.0,57,0.00,,,0.00,Wunderground v.1.15,2013-06-14 23:35:00,
2013-06-14 18:45:00,84.5,68.1,29.83,ENE,77,2.0,2.0,58,0.00,,,0.00,Wunderground v.1.15,2013-06-14 23:45:00,
2013-06-14 18:54:00,84.1,67.7,29.83,ESE,104,1.0,2.0,58,0.00,,,0.00,Wunderground v.1.15,2013-06-14 23:54:00,
2013-06-14 19:00:00,84.0,67.1,29.83,SE,134,1.0,3.0,57,0.00,,,0.00,Wunderground v.1.15,2013-06-15 00:00:00,
2013-06-14 19:05:00,83.6,67.3,29.83,ESE,111,1.0,3.0,58,0.00,,,0.00,Wunderground v.1.15,2013-06-15 00:05:00,
2013-06-14 19:10:00,83.4,67.1,29.83,ENE,76,1.0,1.0,58,0.00,,,0.00,Wunderground v.1.15,2013-06-15 00:10:00,
2013-06-14 19:20:00,83.0,67.7,29.83,East,86,1.0,1.0,60,0.00,,,0.00,Wunderground v.1.15,2013-06-15 00:20:00,
2013-06-14 19:29:00,82.6,67.3,29.83,SE,140,0.0,3.0,60,0.00,,,0.00,Wunderground v.1.15,2013-06-15 00:29:00,
2013-06-14 19:34:00,82.4,67.1,29.83,ESE,102,1.0,3.0,60,0.00,,,0.00,Wunderground v.1.15,2013-06-15 00:34:00,
2013-06-14 19:45:00,82.2,67.4,29.83,SE,126,0.0,1.0,61,0.00,,,0.00,Wunderground v.1.15,2013-06-15 00:45:00,
2013-06-14 19:55:00,81.6,66.8,29.84,East,93,0.0,0.0,61,0.00,,,0.00,Wunderground v.1.15,2013-06-15 00:55:00,
2013-06-14 20:05:00,81.2,66.5,29.84,East,93,0.0,1.0,61,0.00,,,0.00,Wunderground v.1.15,2013-06-15 01:05:00,
2013-06-14 20:14:00,80.9,66.2,29.84,East,93,0.0,1.0,61,0.00,,,0.00,Wunderground v.1.15,2013-06-15 01:14:00,
2013-06-14 20:19:00,80.7,66.5,29.83,ESE,111,0.0,0.0,62,0.00,,,0.00,Wunderground v.1.15,2013-06-15 01:19:00,
2013-06-14 20:25:00,80.5,66.7,29.83,ESE,107,0.0,0.0,63,0.00,,,0.00,Wunderground v.1.15,2013-06-15 01:25:00,
2013-06-14 20:34:00,79.9,66.6,29.84,ENE,69,1.0,2.0,64,0.00,,,0.00,Wunderground v.1.15,2013-06-15 01:34:00,
2013-06-14 20:40:00,79.8,67.0,29.84,SSW,207,1.0,1.0,65,0.00,,,0.00,Wunderground v.1.15,2013-06-15 01:40:00,
2013-06-14 20:50:00,79.4,66.6,29.84,ESE,107,1.0,1.0,65,0.00,,,0.00,Wunderground v.1.15,2013-06-15 01:50:00,
2013-06-14 21:00:00,78.8,66.5,29.84,SSE,153,1.0,3.0,66,0.00,,,0.00,Wunderground v.1.15,2013-06-15 02:00:00,
2013-06-14 21:10:00,78.5,66.2,29.84,ESE,105,1.0,1.0,66,0.00,,,0.00,Wunderground v.1.15,2013-06-15 02:10:00,
2013-06-14 21:20:00,78.1,65.8,29.85,East,99,1.0,1.0,66,0.00,,,0.00,Wunderground v.1.15,2013-06-15 02:20:00,
2013-06-14 21:29:00,77.9,65.6,29.85,ESE,105,1.0,1.0,66,0.00,,,0.00,Wunderground v.1.15,2013-06-15 02:29:00,
2013-06-14 21:35:00,77.7,65.4,29.86,East,92,0.0,1.0,66,0.00,,,0.00,Wunderground v.1.15,2013-06-15 02:35:00,
2013-06-14 21:45:00,77.4,65.1,29.86,ESE,104,1.0,4.0,66,0.00,,,0.00,Wunderground v.1.15,2013-06-15 02:45:00,
2013-06-14 21:55:00,77.2,65.4,29.86,ESE,112,0.0,2.0,67,0.00,,,0.00,Wunderground v.1.15,2013-06-15 02:55:00,
2013-06-14 22:05:00,76.7,65.3,29.87,East,88,0.0,2.0,68,0.00,,,0.00,Wunderground v.1.15,2013-06-15 03:05:00,
2013-06-14 22:14:00,76.7,65.3,29.87,East,96,1.0,1.0,68,0.00,,,0.00,Wunderground v.1.15,2013-06-15 03:14:00,
2013-06-14 22:20:00,76.7,65.3,29.87,ESE,102,0.0,0.0,68,0.00,,,0.00,Wunderground v.1.15,2013-06-15 03:20:00,
2013-06-14 22:30:00,76.5,65.1,29.87,East,80,0.0,0.0,68,0.00,,,0.00,Wunderground v.1.15,2013-06-15 03:30:00,
2013-06-14 22:40:00,76.3,65.4,29.87,SSW,210,0.0,0.0,69,0.00,,,0.00,Wunderground v.1.15,2013-06-15 03:40:00,
2013-06-14 22:50:00,76.3,65.4,29.88,East,84,1.0,1.0,69,0.00,,,0.00,Wunderground v.1.15,2013-06-15 03:50:00,
2013-06-14 22:59:00,76.1,65.2,29.88,East,92,0.0,1.0,69,0.00,,,0.00,Wunderground v.1.15,2013-06-15 03:59:00,
2013-06-14 23:05:00,76.0,65.1,29.88,SE,137,0.0,1.0,69,0.00,,,0.00,Wunderground v.1.15,2013-06-15 04:05:00,
2013-06-14 23:09:00,75.8,64.9,29.88,East,90,1.0,1.0,69,0.00,,,0.00,Wunderground v.1.15,2013-06-15 04:09:00,
2013-06-14 23:15:00,75.8,64.9,29.88,ENE,59,1.0,1.0,69,0.00,,,0.00,Wunderground v.1.15,2013-06-15 04:15:00,
2013-06-14 23:24:00,75.6,65.1,29.88,SE,129,1.0,3.0,70,0.00,,,0.00,Wunderground v.1.15,2013-06-15 04:24:00,
2013-06-14 23:29:00,75.4,64.9,29.88,ESE,105,0.0,0.0,70,0.00,,,0.00,Wunderground v.1.15,2013-06-15 04:29:00,
2013-06-14 23:34:00,75.4,64.9,29.88,ESE,108,0.0,0.0,70,0.00,,,0.00,Wunderground v.1.15,2013-06-15 04:34:00,
2013-06-14 23:40:00,75.3,65.2,29.88,ESE,103,0.0,0.0,71,0.00,,,0.00,Wunderground v.1.15,2013-06-15 04:40:00,
2013-06-14 23:49:00,74.9,64.9,29.88,SSE,154,0.0,3.0,71,0.00,,,0.00,Wunderground v.1.15,2013-06-15 04:49:00,
2013-06-14 23:55:00,74.9,64.9,29.88,East,84,0.0,3.0,71,0.00,,,0.00,Wunderground v.1.15,2013-06-15 04:55:00,